sensor_id;sensor_type;location;lat;lon;timestamp;P1;durP1;ratioP1;P2;durP2;ratioP2
19643;SDS011;9970;-36.854;174.870;2022-08-19T00:02:06;0.90;;;0.90;;
19643;SDS011;9970;-36.854;174.870;2022-08-19T00:04:39;0.90;;;0.90;;
19643;SDS011;9970;-36.854;174.870;2022-08-19T00:07:12;0.90;;;0.90;;
19643;SDS011;9970;-36.854;174.870;2022-08-19T00:09:46;0.80;;;0.80;;
19643;SDS011;9970;-36.854;174.870;2022-08-19T00:12:20;0.90;;;0.90;;
19643;SDS011;9970;-36.854;174.870;2022-08-19T00:14:53;0.90;;;0.90;;
19643;SDS011;9970;-36.854;174.870;2022-08-19T00:17:26;1.00;;;1.00;;
19643;SDS011;9970;-36.854;174.870;2022-08-19T00:19:59;1.00;;;1.00;;
19643;SDS011;9970;-36.854;174.870;2022-08-19T00:22:32;1.00;;;1.00;;
19643;SDS011;9970;-36.854;174.870;2022-08-19T00:25:06;1.00;;;1.00;;
19643;SDS011;9970;-36.854;174.870;2022-08-19T00:27:40;0.90;;;0.90;;
19643;SDS011;9970;-36.854;174.870;2022-08-19T00:30:16;0.90;;;0.90;;
19643;SDS011;9970;-36.854;174.870;2022-08-19T00:32:49;1.00;;;1.00;;
19643;SDS011;9970;-36.854;174.870;2022-08-19T00:35:23;1.00;;;1.00;;
19643;SDS011;9970;-36.854;174.870;2022-08-19T00:37:59;1.00;;;1.00;;
19643;SDS011;9970;-36.854;174.870;2022-08-19T00:40:32;1.00;;;1.00;;
19643;SDS011;9970;-36.854;174.870;2022-08-19T00:43:12;0.90;;;0.90;;
19643;SDS011;9970;-36.854;174.870;2022-08-19T00:45:42;0.90;;;0.90;;
19643;SDS011;9970;-36.854;174.870;2022-08-19T00:48:16;1.00;;;1.00;;
19643;SDS011;9970;-36.854;174.870;2022-08-19T00:53:55;0.90;;;0.90;;
19643;SDS011;9970;-36.854;174.870;2022-08-19T00:56:29;1.00;;;1.00;;
19643;SDS011;9970;-36.854;174.870;2022-08-19T00:59:03;1.00;;;1.00;;
19643;SDS011;9970;-36.854;174.870;2022-08-19T01:01:39;1.10;;;1.10;;
19643;SDS011;9970;-36.854;174.870;2022-08-19T01:04:13;1.00;;;1.00;;
19643;SDS011;9970;-36.854;174.870;2022-08-19T01:06:46;1.00;;;1.00;;
19643;SDS011;9970;-36.854;174.870;2022-08-19T01:09:19;1.00;;;1.00;;
19643;SDS011;9970;-36.854;174.870;2022-08-19T01:11:52;1.00;;;1.00;;
19643;SDS011;9970;-36.854;174.870;2022-08-19T01:14:25;1.00;;;1.00;;
19643;SDS011;9970;-36.854;174.870;2022-08-19T01:16:59;1.10;;;1.10;;
19643;SDS011;9970;-36.854;174.870;2022-08-19T01:19:39;1.00;;;1.00;;
19643;SDS011;9970;-36.854;174.870;2022-08-19T01:22:33;1.00;;;1.00;;
19643;SDS011;9970;-36.854;174.870;2022-08-19T01:25:03;1.00;;;1.00;;
19643;SDS011;9970;-36.854;174.870;2022-08-19T01:27:39;1.00;;;1.00;;
19643;SDS011;9970;-36.854;174.870;2022-08-19T01:30:14;1.00;;;1.00;;
19643;SDS011;9970;-36.854;174.870;2022-08-19T01:32:50;1.10;;;1.10;;
19643;SDS011;9970;-36.854;174.870;2022-08-19T01:35:24;1.00;;;1.00;;
19643;SDS011;9970;-36.854;174.870;2022-08-19T01:38:02;1.00;;;1.00;;
19643;SDS011;9970;-36.854;174.870;2022-08-19T01:40:41;1.00;;;1.00;;
19643;SDS011;9970;-36.854;174.870;2022-08-19T01:43:14;1.00;;;1.00;;
19643;SDS011;9970;-36.854;174.870;2022-08-19T01:45:51;1.00;;;1.00;;
19643;SDS011;9970;-36.854;174.870;2022-08-19T01:48:23;1.00;;;1.00;;
19643;SDS011;9970;-36.854;174.870;2022-08-19T01:50:57;1.00;;;1.00;;
19643;SDS011;9970;-36.854;174.870;2022-08-19T01:53:31;1.00;;;1.00;;
19643;SDS011;9970;-36.854;174.870;2022-08-19T01:56:08;1.00;;;1.00;;
19643;SDS011;9970;-36.854;174.870;2022-08-19T01:58:41;0.97;;;0.97;;
19643;SDS011;9970;-36.854;174.870;2022-08-19T02:01:18;1.00;;;1.00;;
19643;SDS011;9970;-36.854;174.870;2022-08-19T02:03:53;0.90;;;0.90;;
19643;SDS011;9970;-36.854;174.870;2022-08-19T02:06:26;0.90;;;0.90;;
19643;SDS011;9970;-36.854;174.870;2022-08-19T02:08:59;0.90;;;0.90;;
19643;SDS011;9970;-36.854;174.870;2022-08-19T02:11:33;1.00;;;1.00;;
19643;SDS011;9970;-36.854;174.870;2022-08-19T02:14:08;1.00;;;1.00;;
19643;SDS011;9970;-36.854;174.870;2022-08-19T02:16:41;1.00;;;1.00;;
19643;SDS011;9970;-36.854;174.870;2022-08-19T02:19:14;1.00;;;1.00;;
19643;SDS011;9970;-36.854;174.870;2022-08-19T02:21:47;1.10;;;1.10;;
19643;SDS011;9970;-36.854;174.870;2022-08-19T02:24:20;1.00;;;1.00;;
19643;SDS011;9970;-36.854;174.870;2022-08-19T02:26:59;1.00;;;1.00;;
19643;SDS011;9970;-36.854;174.870;2022-08-19T02:29:32;1.00;;;1.00;;
19643;SDS011;9970;-36.854;174.870;2022-08-19T02:32:05;1.00;;;1.00;;
19643;SDS011;9970;-36.854;174.870;2022-08-19T02:34:38;1.00;;;1.00;;
19643;SDS011;9970;-36.854;174.870;2022-08-19T02:37:11;1.00;;;1.00;;
19643;SDS011;9970;-36.854;174.870;2022-08-19T02:40:02;1.00;;;1.00;;
19643;SDS011;9970;-36.854;174.870;2022-08-19T02:42:37;1.07;;;1.07;;
19643;SDS011;9970;-36.854;174.870;2022-08-19T02:45:10;1.00;;;1.00;;
19643;SDS011;9970;-36.854;174.870;2022-08-19T02:47:44;1.00;;;1.00;;
19643;SDS011;9970;-36.854;174.870;2022-08-19T02:50:16;1.00;;;1.00;;
19643;SDS011;9970;-36.854;174.870;2022-08-19T02:52:49;1.00;;;1.00;;
19643;SDS011;9970;-36.854;174.870;2022-08-19T02:55:22;1.00;;;1.00;;
19643;SDS011;9970;-36.854;174.870;2022-08-19T02:57:55;1.00;;;1.00;;
19643;SDS011;9970;-36.854;174.870;2022-08-19T03:00:30;0.97;;;0.97;;
19643;SDS011;9970;-36.854;174.870;2022-08-19T03:03:04;1.00;;;1.00;;
19643;SDS011;9970;-36.854;174.870;2022-08-19T03:05:37;1.00;;;1.00;;
19643;SDS011;9970;-36.854;174.870;2022-08-19T03:08:11;1.00;;;1.00;;
19643;SDS011;9970;-36.854;174.870;2022-08-19T03:10:47;1.00;;;1.00;;
19643;SDS011;9970;-36.854;174.870;2022-08-19T03:13:21;1.00;;;1.00;;
19643;SDS011;9970;-36.854;174.870;2022-08-19T03:15:55;1.00;;;1.00;;
19643;SDS011;9970;-36.854;174.870;2022-08-19T03:18:28;1.00;;;1.00;;
19643;SDS011;9970;-36.854;174.870;2022-08-19T03:21:02;1.00;;;1.00;;
19643;SDS011;9970;-36.854;174.870;2022-08-19T03:23:36;1.00;;;1.00;;
19643;SDS011;9970;-36.854;174.870;2022-08-19T03:26:13;1.00;;;1.00;;
19643;SDS011;9970;-36.854;174.870;2022-08-19T03:28:46;1.00;;;1.00;;
19643;SDS011;9970;-36.854;174.870;2022-08-19T03:31:21;1.10;;;1.10;;
19643;SDS011;9970;-36.854;174.870;2022-08-19T03:33:56;1.00;;;1.00;;
19643;SDS011;9970;-36.854;174.870;2022-08-19T03:36:30;1.00;;;1.00;;
19643;SDS011;9970;-36.854;174.870;2022-08-19T03:39:03;1.10;;;1.10;;
19643;SDS011;9970;-36.854;174.870;2022-08-19T03:41:37;1.10;;;1.10;;
19643;SDS011;9970;-36.854;174.870;2022-08-19T03:44:13;1.10;;;1.10;;
19643;SDS011;9970;-36.854;174.870;2022-08-19T03:46:48;1.10;;;1.10;;
19643;SDS011;9970;-36.854;174.870;2022-08-19T03:49:23;1.10;;;1.10;;
19643;SDS011;9970;-36.854;174.870;2022-08-19T03:52:00;1.13;;;1.13;;
19643;SDS011;9970;-36.854;174.870;2022-08-19T03:54:35;1.10;;;1.10;;
19643;SDS011;9970;-36.854;174.870;2022-08-19T03:57:08;1.10;;;1.10;;
19643;SDS011;9970;-36.854;174.870;2022-08-19T03:59:45;1.10;;;1.10;;
19643;SDS011;9970;-36.854;174.870;2022-08-19T04:02:18;1.13;;;1.13;;
19643;SDS011;9970;-36.854;174.870;2022-08-19T04:04:53;1.10;;;1.10;;
19643;SDS011;9970;-36.854;174.870;2022-08-19T04:07:25;1.03;;;1.03;;
19643;SDS011;9970;-36.854;174.870;2022-08-19T04:09:57;1.10;;;1.10;;
19643;SDS011;9970;-36.854;174.870;2022-08-19T04:12:31;1.00;;;1.00;;
19643;SDS011;9970;-36.854;174.870;2022-08-19T04:15:04;1.10;;;1.10;;
19643;SDS011;9970;-36.854;174.870;2022-08-19T04:17:37;1.23;;;1.23;;
19643;SDS011;9970;-36.854;174.870;2022-08-19T04:20:10;1.10;;;1.10;;
19643;SDS011;9970;-36.854;174.870;2022-08-19T04:23:05;1.10;;;1.10;;
19643;SDS011;9970;-36.854;174.870;2022-08-19T04:25:42;1.10;;;1.10;;
19643;SDS011;9970;-36.854;174.870;2022-08-19T04:28:19;1.10;;;1.10;;
19643;SDS011;9970;-36.854;174.870;2022-08-19T04:30:53;1.10;;;1.10;;
19643;SDS011;9970;-36.854;174.870;2022-08-19T04:33:26;1.10;;;1.10;;
19643;SDS011;9970;-36.854;174.870;2022-08-19T04:35:59;1.10;;;1.10;;
19643;SDS011;9970;-36.854;174.870;2022-08-19T04:38:32;1.10;;;1.10;;
19643;SDS011;9970;-36.854;174.870;2022-08-19T04:41:05;1.00;;;1.00;;
19643;SDS011;9970;-36.854;174.870;2022-08-19T04:43:58;1.10;;;1.10;;
19643;SDS011;9970;-36.854;174.870;2022-08-19T04:46:31;1.10;;;1.10;;
19643;SDS011;9970;-36.854;174.870;2022-08-19T04:49:06;1.10;;;1.10;;
19643;SDS011;9970;-36.854;174.870;2022-08-19T04:51:44;1.10;;;1.10;;
19643;SDS011;9970;-36.854;174.870;2022-08-19T04:54:18;1.20;;;1.20;;
19643;SDS011;9970;-36.854;174.870;2022-08-19T04:56:52;1.10;;;1.10;;
19643;SDS011;9970;-36.854;174.870;2022-08-19T04:59:25;1.10;;;1.10;;
19643;SDS011;9970;-36.854;174.870;2022-08-19T05:01:58;1.10;;;1.10;;
19643;SDS011;9970;-36.854;174.870;2022-08-19T05:04:35;1.10;;;1.10;;
19643;SDS011;9970;-36.854;174.870;2022-08-19T05:07:08;1.00;;;1.00;;
19643;SDS011;9970;-36.854;174.870;2022-08-19T05:09:41;1.23;;;1.23;;
19643;SDS011;9970;-36.854;174.870;2022-08-19T05:12:15;1.10;;;1.10;;
19643;SDS011;9970;-36.854;174.870;2022-08-19T05:14:50;1.30;;;1.30;;
19643;SDS011;9970;-36.854;174.870;2022-08-19T05:17:23;1.10;;;1.10;;
19643;SDS011;9970;-36.854;174.870;2022-08-19T05:19:58;1.10;;;1.10;;
19643;SDS011;9970;-36.854;174.870;2022-08-19T05:22:54;1.10;;;1.10;;
19643;SDS011;9970;-36.854;174.870;2022-08-19T05:25:27;1.10;;;1.10;;
19643;SDS011;9970;-36.854;174.870;2022-08-19T05:27:59;1.10;;;1.10;;
19643;SDS011;9970;-36.854;174.870;2022-08-19T05:30:32;1.17;;;1.17;;
19643;SDS011;9970;-36.854;174.870;2022-08-19T05:33:06;1.10;;;1.10;;
19643;SDS011;9970;-36.854;174.870;2022-08-19T05:35:40;1.10;;;1.10;;
19643;SDS011;9970;-36.854;174.870;2022-08-19T05:38:13;1.00;;;1.00;;
19643;SDS011;9970;-36.854;174.870;2022-08-19T05:40:47;1.00;;;1.00;;
19643;SDS011;9970;-36.854;174.870;2022-08-19T05:43:20;1.00;;;1.00;;
19643;SDS011;9970;-36.854;174.870;2022-08-19T05:45:52;1.00;;;1.00;;
19643;SDS011;9970;-36.854;174.870;2022-08-19T05:48:25;1.00;;;1.00;;
19643;SDS011;9970;-36.854;174.870;2022-08-19T05:51:02;1.00;;;1.00;;
19643;SDS011;9970;-36.854;174.870;2022-08-19T05:53:36;1.00;;;1.00;;
19643;SDS011;9970;-36.854;174.870;2022-08-19T05:56:10;1.00;;;1.00;;
19643;SDS011;9970;-36.854;174.870;2022-08-19T05:58:45;0.97;;;0.97;;
19643;SDS011;9970;-36.854;174.870;2022-08-19T06:01:18;0.93;;;0.93;;
19643;SDS011;9970;-36.854;174.870;2022-08-19T06:03:51;1.00;;;1.00;;
19643;SDS011;9970;-36.854;174.870;2022-08-19T06:06:24;1.00;;;1.00;;
19643;SDS011;9970;-36.854;174.870;2022-08-19T06:08:57;1.00;;;1.00;;
19643;SDS011;9970;-36.854;174.870;2022-08-19T06:14:09;1.07;;;1.07;;
19643;SDS011;9970;-36.854;174.870;2022-08-19T06:16:45;1.10;;;1.10;;
19643;SDS011;9970;-36.854;174.870;2022-08-19T06:19:18;1.00;;;1.00;;
19643;SDS011;9970;-36.854;174.870;2022-08-19T06:21:58;1.07;;;1.07;;
19643;SDS011;9970;-36.854;174.870;2022-08-19T06:24:31;1.10;;;1.10;;
19643;SDS011;9970;-36.854;174.870;2022-08-19T06:27:04;1.10;;;1.10;;
19643;SDS011;9970;-36.854;174.870;2022-08-19T06:29:37;1.00;;;1.00;;
19643;SDS011;9970;-36.854;174.870;2022-08-19T06:32:11;1.00;;;1.00;;
19643;SDS011;9970;-36.854;174.870;2022-08-19T06:34:46;1.00;;;1.00;;
19643;SDS011;9970;-36.854;174.870;2022-08-19T06:37:18;1.10;;;1.10;;
19643;SDS011;9970;-36.854;174.870;2022-08-19T06:39:52;1.00;;;1.00;;
19643;SDS011;9970;-36.854;174.870;2022-08-19T06:42:25;1.00;;;1.00;;
19643;SDS011;9970;-36.854;174.870;2022-08-19T06:44:58;1.00;;;1.00;;
19643;SDS011;9970;-36.854;174.870;2022-08-19T06:47:36;1.10;;;1.10;;
19643;SDS011;9970;-36.854;174.870;2022-08-19T06:50:09;1.00;;;1.00;;
19643;SDS011;9970;-36.854;174.870;2022-08-19T06:52:42;1.00;;;1.00;;
19643;SDS011;9970;-36.854;174.870;2022-08-19T06:55:17;1.00;;;1.00;;
19643;SDS011;9970;-36.854;174.870;2022-08-19T06:57:50;1.00;;;1.00;;
19643;SDS011;9970;-36.854;174.870;2022-08-19T07:00:23;1.00;;;1.00;;
19643;SDS011;9970;-36.854;174.870;2022-08-19T07:02:57;1.00;;;1.00;;
19643;SDS011;9970;-36.854;174.870;2022-08-19T07:05:32;1.00;;;1.00;;
19643;SDS011;9970;-36.854;174.870;2022-08-19T07:08:07;0.93;;;0.93;;
19643;SDS011;9970;-36.854;174.870;2022-08-19T07:10:44;1.00;;;1.00;;
19643;SDS011;9970;-36.854;174.870;2022-08-19T07:13:17;1.00;;;1.00;;
19643;SDS011;9970;-36.854;174.870;2022-08-19T07:15:51;1.00;;;1.00;;
19643;SDS011;9970;-36.854;174.870;2022-08-19T07:18:25;1.10;;;1.10;;
19643;SDS011;9970;-36.854;174.870;2022-08-19T07:21:14;1.03;;;1.03;;
19643;SDS011;9970;-36.854;174.870;2022-08-19T07:23:43;1.10;;;1.10;;
19643;SDS011;9970;-36.854;174.870;2022-08-19T07:26:17;1.00;;;1.00;;
19643;SDS011;9970;-36.854;174.870;2022-08-19T07:28:55;1.00;;;1.00;;
19643;SDS011;9970;-36.854;174.870;2022-08-19T07:31:30;1.07;;;1.07;;
19643;SDS011;9970;-36.854;174.870;2022-08-19T07:34:04;1.10;;;1.10;;
19643;SDS011;9970;-36.854;174.870;2022-08-19T07:36:40;1.00;;;1.00;;
19643;SDS011;9970;-36.854;174.870;2022-08-19T07:39:16;1.10;;;1.10;;
19643;SDS011;9970;-36.854;174.870;2022-08-19T07:41:48;1.10;;;1.10;;
19643;SDS011;9970;-36.854;174.870;2022-08-19T07:44:21;1.10;;;1.10;;
19643;SDS011;9970;-36.854;174.870;2022-08-19T07:46:54;1.10;;;1.10;;
19643;SDS011;9970;-36.854;174.870;2022-08-19T07:49:28;1.10;;;1.10;;
19643;SDS011;9970;-36.854;174.870;2022-08-19T07:52:03;1.10;;;1.10;;
19643;SDS011;9970;-36.854;174.870;2022-08-19T07:54:36;1.10;;;1.10;;
19643;SDS011;9970;-36.854;174.870;2022-08-19T07:57:10;1.10;;;1.10;;
19643;SDS011;9970;-36.854;174.870;2022-08-19T07:59:44;1.10;;;1.10;;
19643;SDS011;9970;-36.854;174.870;2022-08-19T08:02:17;1.20;;;1.20;;
19643;SDS011;9970;-36.854;174.870;2022-08-19T08:04:50;1.20;;;1.20;;
19643;SDS011;9970;-36.854;174.870;2022-08-19T08:07:40;1.20;;;1.20;;
19643;SDS011;9970;-36.854;174.870;2022-08-19T08:10:30;1.20;;;1.20;;
19643;SDS011;9970;-36.854;174.870;2022-08-19T08:13:08;1.23;;;1.23;;
19643;SDS011;9970;-36.854;174.870;2022-08-19T08:15:42;1.20;;;1.20;;
19643;SDS011;9970;-36.854;174.870;2022-08-19T08:18:16;1.30;;;1.30;;
19643;SDS011;9970;-36.854;174.870;2022-08-19T08:20:51;1.20;;;1.20;;
19643;SDS011;9970;-36.854;174.870;2022-08-19T08:23:24;1.20;;;1.20;;
19643;SDS011;9970;-36.854;174.870;2022-08-19T08:25:58;1.20;;;1.20;;
19643;SDS011;9970;-36.854;174.870;2022-08-19T08:28:32;1.20;;;1.20;;
19643;SDS011;9970;-36.854;174.870;2022-08-19T08:31:05;1.20;;;1.20;;
19643;SDS011;9970;-36.854;174.870;2022-08-19T08:33:38;1.20;;;1.20;;
19643;SDS011;9970;-36.854;174.870;2022-08-19T08:36:16;1.40;;;1.40;;
19643;SDS011;9970;-36.854;174.870;2022-08-19T08:38:49;1.40;;;1.40;;
19643;SDS011;9970;-36.854;174.870;2022-08-19T08:44:06;1.67;;;1.67;;
19643;SDS011;9970;-36.854;174.870;2022-08-19T08:46:46;1.50;;;1.50;;
19643;SDS011;9970;-36.854;174.870;2022-08-19T08:49:33;1.50;;;1.50;;
19643;SDS011;9970;-36.854;174.870;2022-08-19T08:55:00;1.60;;;1.60;;
19643;SDS011;9970;-36.854;174.870;2022-08-19T09:00:26;1.60;;;1.60;;
19643;SDS011;9970;-36.854;174.870;2022-08-19T09:03:03;1.50;;;1.50;;
19643;SDS011;9970;-36.854;174.870;2022-08-19T09:05:42;1.53;;;1.53;;
19643;SDS011;9970;-36.854;174.870;2022-08-19T09:08:27;1.60;;;1.60;;
19643;SDS011;9970;-36.854;174.870;2022-08-19T09:11:04;1.50;;;1.50;;
19643;SDS011;9970;-36.854;174.870;2022-08-19T09:13:49;1.60;;;1.60;;
19643;SDS011;9970;-36.854;174.870;2022-08-19T09:16:26;1.50;;;1.50;;
19643;SDS011;9970;-36.854;174.870;2022-08-19T09:19:02;1.40;;;1.40;;
19643;SDS011;9970;-36.854;174.870;2022-08-19T09:21:35;1.50;;;1.50;;
19643;SDS011;9970;-36.854;174.870;2022-08-19T09:24:08;1.40;;;1.40;;
19643;SDS011;9970;-36.854;174.870;2022-08-19T09:26:42;1.60;;;1.60;;
19643;SDS011;9970;-36.854;174.870;2022-08-19T09:29:17;1.60;;;1.60;;
19643;SDS011;9970;-36.854;174.870;2022-08-19T09:31:50;1.70;;;1.70;;
19643;SDS011;9970;-36.854;174.870;2022-08-19T09:34:23;1.50;;;1.50;;
19643;SDS011;9970;-36.854;174.870;2022-08-19T09:36:56;1.70;;;1.70;;
19643;SDS011;9970;-36.854;174.870;2022-08-19T09:39:29;1.60;;;1.60;;
19643;SDS011;9970;-36.854;174.870;2022-08-19T09:42:03;1.50;;;1.50;;
19643;SDS011;9970;-36.854;174.870;2022-08-19T09:44:38;1.60;;;1.60;;
19643;SDS011;9970;-36.854;174.870;2022-08-19T09:47:12;1.60;;;1.60;;
19643;SDS011;9970;-36.854;174.870;2022-08-19T09:49:46;1.70;;;1.70;;
19643;SDS011;9970;-36.854;174.870;2022-08-19T09:52:19;1.67;;;1.67;;
19643;SDS011;9970;-36.854;174.870;2022-08-19T09:54:59;1.70;;;1.70;;
19643;SDS011;9970;-36.854;174.870;2022-08-19T09:57:34;1.87;;;1.87;;
19643;SDS011;9970;-36.854;174.870;2022-08-19T10:00:08;1.70;;;1.70;;
19643;SDS011;9970;-36.854;174.870;2022-08-19T10:02:44;1.70;;;1.70;;
19643;SDS011;9970;-36.854;174.870;2022-08-19T10:05:18;1.80;;;1.80;;
19643;SDS011;9970;-36.854;174.870;2022-08-19T10:08:09;1.80;;;1.80;;
19643;SDS011;9970;-36.854;174.870;2022-08-19T10:10:42;1.60;;;1.60;;
19643;SDS011;9970;-36.854;174.870;2022-08-19T10:13:19;1.70;;;1.70;;
19643;SDS011;9970;-36.854;174.870;2022-08-19T10:15:54;1.60;;;1.60;;
19643;SDS011;9970;-36.854;174.870;2022-08-19T10:18:28;1.57;;;1.57;;
19643;SDS011;9970;-36.854;174.870;2022-08-19T10:21:10;1.43;;;1.43;;
19643;SDS011;9970;-36.854;174.870;2022-08-19T10:23:43;1.60;;;1.60;;
19643;SDS011;9970;-36.854;174.870;2022-08-19T10:26:19;1.63;;;1.63;;
19643;SDS011;9970;-36.854;174.870;2022-08-19T10:28:53;1.90;;;1.90;;
19643;SDS011;9970;-36.854;174.870;2022-08-19T10:31:27;1.60;;;1.60;;
19643;SDS011;9970;-36.854;174.870;2022-08-19T10:34:02;1.50;;;1.50;;
19643;SDS011;9970;-36.854;174.870;2022-08-19T10:36:36;1.60;;;1.60;;
19643;SDS011;9970;-36.854;174.870;2022-08-19T10:39:10;1.67;;;1.67;;
19643;SDS011;9970;-36.854;174.870;2022-08-19T10:41:43;1.50;;;1.50;;
19643;SDS011;9970;-36.854;174.870;2022-08-19T10:44:16;1.60;;;1.60;;
19643;SDS011;9970;-36.854;174.870;2022-08-19T10:46:50;1.60;;;1.60;;
19643;SDS011;9970;-36.854;174.870;2022-08-19T10:49:27;1.60;;;1.60;;
19643;SDS011;9970;-36.854;174.870;2022-08-19T10:52:01;1.53;;;1.53;;
19643;SDS011;9970;-36.854;174.870;2022-08-19T10:54:53;1.63;;;1.63;;
19643;SDS011;9970;-36.854;174.870;2022-08-19T10:57:44;1.60;;;1.60;;
19643;SDS011;9970;-36.854;174.870;2022-08-19T11:00:18;1.50;;;1.50;;
19643;SDS011;9970;-36.854;174.870;2022-08-19T11:02:53;1.60;;;1.60;;
19643;SDS011;9970;-36.854;174.870;2022-08-19T11:05:26;1.60;;;1.60;;
19643;SDS011;9970;-36.854;174.870;2022-08-19T11:08:05;1.60;;;1.60;;
19643;SDS011;9970;-36.854;174.870;2022-08-19T11:10:43;1.50;;;1.50;;
19643;SDS011;9970;-36.854;174.870;2022-08-19T11:13:17;1.60;;;1.60;;
19643;SDS011;9970;-36.854;174.870;2022-08-19T11:15:56;1.50;;;1.50;;
19643;SDS011;9970;-36.854;174.870;2022-08-19T11:18:35;1.50;;;1.50;;
19643;SDS011;9970;-36.854;174.870;2022-08-19T11:21:14;1.60;;;1.60;;
19643;SDS011;9970;-36.854;174.870;2022-08-19T11:23:49;1.50;;;1.50;;
19643;SDS011;9970;-36.854;174.870;2022-08-19T11:26:23;1.60;;;1.60;;
19643;SDS011;9970;-36.854;174.870;2022-08-19T11:28:56;1.60;;;1.60;;
19643;SDS011;9970;-36.854;174.870;2022-08-19T11:31:34;1.60;;;1.60;;
19643;SDS011;9970;-36.854;174.870;2022-08-19T11:34:09;1.70;;;1.70;;
19643;SDS011;9970;-36.854;174.870;2022-08-19T11:36:43;1.80;;;1.80;;
19643;SDS011;9970;-36.854;174.870;2022-08-19T11:39:18;2.10;;;2.10;;
19643;SDS011;9970;-36.854;174.870;2022-08-19T11:41:52;1.80;;;1.80;;
19643;SDS011;9970;-36.854;174.870;2022-08-19T11:44:25;1.90;;;1.90;;
19643;SDS011;9970;-36.854;174.870;2022-08-19T11:47:00;1.90;;;1.90;;
19643;SDS011;9970;-36.854;174.870;2022-08-19T11:49:34;1.80;;;1.80;;
19643;SDS011;9970;-36.854;174.870;2022-08-19T11:52:07;1.90;;;1.90;;
19643;SDS011;9970;-36.854;174.870;2022-08-19T11:54:40;1.90;;;1.90;;
19643;SDS011;9970;-36.854;174.870;2022-08-19T11:57:13;1.90;;;1.90;;
19643;SDS011;9970;-36.854;174.870;2022-08-19T11:59:49;1.80;;;1.80;;
19643;SDS011;9970;-36.854;174.870;2022-08-19T12:02:23;1.80;;;1.80;;
19643;SDS011;9970;-36.854;174.870;2022-08-19T12:04:56;1.80;;;1.80;;
19643;SDS011;9970;-36.854;174.870;2022-08-19T12:07:30;1.90;;;1.90;;
19643;SDS011;9970;-36.854;174.870;2022-08-19T12:10:03;1.90;;;1.90;;
19643;SDS011;9970;-36.854;174.870;2022-08-19T12:12:38;2.00;;;2.00;;
19643;SDS011;9970;-36.854;174.870;2022-08-19T12:15:13;1.90;;;1.90;;
19643;SDS011;9970;-36.854;174.870;2022-08-19T12:17:46;1.90;;;1.90;;
19643;SDS011;9970;-36.854;174.870;2022-08-19T12:20:20;1.90;;;1.90;;
19643;SDS011;9970;-36.854;174.870;2022-08-19T12:22:53;2.00;;;2.00;;
19643;SDS011;9970;-36.854;174.870;2022-08-19T12:25:27;1.90;;;1.90;;
19643;SDS011;9970;-36.854;174.870;2022-08-19T12:28:00;1.90;;;1.90;;
19643;SDS011;9970;-36.854;174.870;2022-08-19T12:30:34;2.00;;;2.00;;
19643;SDS011;9970;-36.854;174.870;2022-08-19T12:33:08;2.00;;;2.00;;
19643;SDS011;9970;-36.854;174.870;2022-08-19T12:35:45;1.90;;;1.90;;
19643;SDS011;9970;-36.854;174.870;2022-08-19T12:38:18;1.90;;;1.90;;
19643;SDS011;9970;-36.854;174.870;2022-08-19T12:40:52;2.00;;;2.00;;
19643;SDS011;9970;-36.854;174.870;2022-08-19T12:43:26;2.00;;;2.00;;
19643;SDS011;9970;-36.854;174.870;2022-08-19T12:45:59;2.00;;;2.00;;
19643;SDS011;9970;-36.854;174.870;2022-08-19T12:48:34;2.00;;;2.00;;
19643;SDS011;9970;-36.854;174.870;2022-08-19T12:51:09;2.00;;;2.00;;
19643;SDS011;9970;-36.854;174.870;2022-08-19T12:53:44;2.10;;;2.10;;
19643;SDS011;9970;-36.854;174.870;2022-08-19T12:56:17;2.10;;;2.10;;
19643;SDS011;9970;-36.854;174.870;2022-08-19T12:58:50;1.90;;;1.90;;
19643;SDS011;9970;-36.854;174.870;2022-08-19T13:01:23;2.00;;;2.00;;
19643;SDS011;9970;-36.854;174.870;2022-08-19T13:03:57;1.90;;;1.90;;
19643;SDS011;9970;-36.854;174.870;2022-08-19T13:06:30;2.10;;;2.10;;
19643;SDS011;9970;-36.854;174.870;2022-08-19T13:09:03;1.90;;;1.90;;
19643;SDS011;9970;-36.854;174.870;2022-08-19T13:11:36;2.00;;;2.00;;
19643;SDS011;9970;-36.854;174.870;2022-08-19T13:14:10;2.10;;;2.10;;
19643;SDS011;9970;-36.854;174.870;2022-08-19T13:16:43;2.10;;;2.10;;
19643;SDS011;9970;-36.854;174.870;2022-08-19T13:19:16;2.30;;;2.30;;
19643;SDS011;9970;-36.854;174.870;2022-08-19T13:21:50;2.17;;;2.17;;
19643;SDS011;9970;-36.854;174.870;2022-08-19T13:24:26;2.10;;;2.10;;
19643;SDS011;9970;-36.854;174.870;2022-08-19T13:27:02;2.30;;;2.30;;
19643;SDS011;9970;-36.854;174.870;2022-08-19T13:29:36;2.20;;;2.20;;
19643;SDS011;9970;-36.854;174.870;2022-08-19T13:32:32;2.20;;;2.20;;
19643;SDS011;9970;-36.854;174.870;2022-08-19T13:35:23;2.23;;;2.23;;
19643;SDS011;9970;-36.854;174.870;2022-08-19T13:37:56;2.20;;;2.20;;
19643;SDS011;9970;-36.854;174.870;2022-08-19T13:40:30;2.10;;;2.10;;
19643;SDS011;9970;-36.854;174.870;2022-08-19T13:43:10;2.10;;;2.10;;
19643;SDS011;9970;-36.854;174.870;2022-08-19T13:45:45;1.90;;;1.90;;
19643;SDS011;9970;-36.854;174.870;2022-08-19T13:48:17;2.00;;;2.00;;
19643;SDS011;9970;-36.854;174.870;2022-08-19T13:50:51;1.90;;;1.90;;
19643;SDS011;9970;-36.854;174.870;2022-08-19T13:53:27;2.20;;;2.20;;
19643;SDS011;9970;-36.854;174.870;2022-08-19T13:56:00;2.20;;;2.20;;
19643;SDS011;9970;-36.854;174.870;2022-08-19T13:58:35;2.00;;;2.00;;
19643;SDS011;9970;-36.854;174.870;2022-08-19T14:01:09;2.10;;;2.10;;
19643;SDS011;9970;-36.854;174.870;2022-08-19T14:03:42;2.10;;;2.10;;
19643;SDS011;9970;-36.854;174.870;2022-08-19T14:06:15;2.10;;;2.10;;
19643;SDS011;9970;-36.854;174.870;2022-08-19T14:08:48;2.30;;;2.30;;
19643;SDS011;9970;-36.854;174.870;2022-08-19T14:11:22;2.93;;;2.93;;
19643;SDS011;9970;-36.854;174.870;2022-08-19T14:13:56;2.00;;;2.00;;
19643;SDS011;9970;-36.854;174.870;2022-08-19T14:16:29;2.00;;;2.00;;
19643;SDS011;9970;-36.854;174.870;2022-08-19T14:19:02;2.10;;;2.10;;
19643;SDS011;9970;-36.854;174.870;2022-08-19T14:21:39;1.93;;;1.93;;
19643;SDS011;9970;-36.854;174.870;2022-08-19T14:24:12;1.90;;;1.90;;
19643;SDS011;9970;-36.854;174.870;2022-08-19T14:26:45;1.80;;;1.80;;
19643;SDS011;9970;-36.854;174.870;2022-08-19T14:29:18;1.70;;;1.70;;
19643;SDS011;9970;-36.854;174.870;2022-08-19T14:31:51;1.50;;;1.50;;
19643;SDS011;9970;-36.854;174.870;2022-08-19T14:34:24;1.50;;;1.50;;
19643;SDS011;9970;-36.854;174.870;2022-08-19T14:36:57;1.50;;;1.50;;
19643;SDS011;9970;-36.854;174.870;2022-08-19T14:39:30;1.40;;;1.40;;
19643;SDS011;9970;-36.854;174.870;2022-08-19T14:42:06;1.30;;;1.30;;
19643;SDS011;9970;-36.854;174.870;2022-08-19T14:44:44;1.20;;;1.20;;
19643;SDS011;9970;-36.854;174.870;2022-08-19T14:47:17;1.20;;;1.20;;
19643;SDS011;9970;-36.854;174.870;2022-08-19T14:49:50;1.10;;;1.10;;
19643;SDS011;9970;-36.854;174.870;2022-08-19T14:52:23;1.20;;;1.20;;
19643;SDS011;9970;-36.854;174.870;2022-08-19T14:54:56;1.30;;;1.30;;
19643;SDS011;9970;-36.854;174.870;2022-08-19T14:57:30;1.30;;;1.30;;
19643;SDS011;9970;-36.854;174.870;2022-08-19T15:00:03;1.30;;;1.30;;
19643;SDS011;9970;-36.854;174.870;2022-08-19T15:02:38;1.20;;;1.20;;
19643;SDS011;9970;-36.854;174.870;2022-08-19T15:05:13;1.10;;;1.10;;
19643;SDS011;9970;-36.854;174.870;2022-08-19T15:07:46;1.30;;;1.30;;
19643;SDS011;9970;-36.854;174.870;2022-08-19T15:10:19;1.00;;;1.00;;
19643;SDS011;9970;-36.854;174.870;2022-08-19T15:12:53;1.00;;;1.00;;
19643;SDS011;9970;-36.854;174.870;2022-08-19T15:15:26;1.00;;;1.00;;
19643;SDS011;9970;-36.854;174.870;2022-08-19T15:17:59;1.00;;;1.00;;
19643;SDS011;9970;-36.854;174.870;2022-08-19T15:20:33;1.00;;;1.00;;